Time;durP1;ratioP1;P1;durP2;ratioP2;P2;SDS_P1;SDS_P2;PMS_P1;PMS_P2;Temp;Humidity;BMP_temperature;BMP_pressure;BME280_temperature;BME280_humidity;BME280_pressure;Samples;Min_cycle;Max_cycle;Signal;HPM_P1;HPM_P2
2021/04/23 00:01:34;;;;;;;12.53;5.87;;;;;;;4.70;65.08;101806.00;5033545;28;20215;-64
2021/04/23 00:04:03;;;;;;;10.77;5.53;;;;;;;4.72;65.68;101800.69;5033956;28;20260;-64
2021/04/23 00:06:32;;;;;;;14.37;6.87;;;;;;;4.72;65.42;101793.66;5032100;28;20206;-63
2021/04/23 00:09:02;;;;;;;9.83;6.17;;;;;;;4.73;66.08;101790.09;5031631;28;20225;-64
2021/04/23 00:11:33;;;;;;;11.80;5.23;;;;;;;4.74;66.45;101791.84;5031354;28;20292;-65
2021/04/23 00:13:59;;;;;;;10.93;6.00;;;;;;;4.76;66.06;101799.75;5031175;28;20198;-65
2021/04/23 00:16:25;;;;;;;14.90;6.63;;;;;;;4.77;65.80;101794.44;5029175;28;20210;-64
2021/04/23 00:18:52;;;;;;;9.93;5.30;;;;;;;4.79;66.20;101797.91;5030589;28;20226;-64
2021/04/23 00:21:21;;;;;;;11.73;5.70;;;;;;;4.82;66.35;101792.56;5031198;28;20687;-64
2021/04/23 00:23:47;;;;;;;11.90;5.80;;;;;;;4.84;66.80;101788.09;5030950;28;20367;-66
2021/04/23 00:26:14;;;;;;;15.43;6.17;;;;;;;4.86;66.69;101788.94;5030354;28;20206;-66
2021/04/23 00:28:40;;;;;;;11.43;5.57;;;;;;;4.90;66.88;101795.03;5030174;28;20202;-64
2021/04/23 00:31:08;;;;;;;15.97;5.37;;;;;;;4.92;67.32;101803.78;5031109;28;20206;-64
2021/04/23 00:33:35;;;;;;;10.37;5.53;;;;;;;4.96;66.79;101805.47;5028772;28;20206;-64
2021/04/23 00:36:04;;;;;;;8.90;5.27;;;;;;;4.99;67.55;101800.13;5031342;28;20217;-65
2021/04/23 00:38:31;;;;;;;9.67;5.37;;;;;;;5.02;67.46;101799.16;5026837;28;20209;-64
2021/04/23 00:40:59;;;;;;;16.97;6.23;;;;;;;5.03;67.45;101790.34;5027383;28;20214;-63
2021/04/23 00:43:28;;;;;;;13.50;5.90;;;;;;;5.06;67.13;101799.06;5028703;28;20233;-65
2021/04/23 00:45:55;;;;;;;13.10;5.43;;;;;;;5.07;67.03;101787.59;5028609;28;20218;-64
2021/04/23 00:48:22;;;;;;;10.57;6.30;;;;;;;5.10;67.48;101784.03;5029015;28;20250;-63
2021/04/23 00:50:51;;;;;;;11.87;5.80;;;;;;;5.11;67.58;101783.13;5028749;28;20236;-64
2021/04/23 00:53:20;;;;;;;9.93;5.57;;;;;;;5.14;67.03;101783.94;5028002;28;20210;-64
2021/04/23 00:55:47;;;;;;;8.33;5.07;;;;;;;5.17;67.66;101780.34;5028354;28;20229;-64
2021/04/23 00:58:16;;;;;;;10.47;5.13;;;;;;;5.19;67.12;101782.06;5028363;28;20206;-64
2021/04/23 01:00:45;;;;;;;16.03;6.80;;;;;;;5.22;67.59;101776.69;5027482;28;20229;-65
2021/04/23 01:03:11;;;;;;;11.17;5.80;;;;;;;5.25;67.55;101781.03;5033068;28;20237;-64
2021/04/23 01:05:38;;;;;;;10.43;6.30;;;;;;;5.27;67.13;101789.78;5034800;28;20256;-65
2021/04/23 01:08:05;;;;;;;15.10;5.60;;;;;;;5.28;67.59;101785.38;5029976;28;20698;-64
2021/04/23 01:10:32;;;;;;;8.43;5.73;;;;;;;5.31;67.06;101785.31;5032924;28;20281;-64
2021/04/23 01:12:58;;;;;;;9.03;5.63;;;;;;;5.32;67.18;101787.03;5031522;28;20679;-65
2021/04/23 01:15:24;;;;;;;12.20;5.10;;;;;;;5.33;67.59;101792.28;5031904;28;20293;-65
2021/04/23 01:17:51;;;;;;;14.07;5.77;;;;;;;5.35;67.49;101779.06;5029536;28;20202;-64
2021/04/23 01:20:17;;;;;;;12.40;5.50;;;;;;;5.35;67.91;101785.22;5028940;28;20237;-64
2021/04/23 01:22:44;;;;;;;11.13;5.43;;;;;;;5.35;67.08;101793.13;5028890;28;20668;-64
2021/04/23 01:25:12;;;;;;;12.47;5.30;;;;;;;5.36;67.10;101794.88;5028538;28;20205;-65
2021/04/23 01:27:39;;;;;;;12.77;6.47;;;;;;;5.36;67.66;101797.50;5029213;28;20234;-64
2021/04/23 01:30:10;;;;;;;15.37;6.33;;;;;;;5.36;67.48;101794.88;5030179;28;20238;-65
2021/04/23 01:32:39;;;;;;;12.23;5.37;;;;;;;5.37;67.74;101796.59;5030545;28;20218;-64
2021/04/23 01:35:07;;;;;;;8.57;5.23;;;;;;;5.39;67.52;101791.25;5028718;28;20205;-65
2021/04/23 01:37:33;;;;;;;12.60;4.97;;;;;;;5.39;67.21;101789.50;5028431;28;20202;-64
2021/04/23 01:40:00;;;;;;;8.00;5.30;;;;;;;5.39;67.36;101788.63;5028528;28;20222;-64
2021/04/23 01:42:27;;;;;;;11.67;5.80;;;;;;;5.40;67.71;101790.34;5030327;28;20208;-65
2021/04/23 01:44:57;;;;;;;10.03;5.97;;;;;;;5.41;67.55;101800.03;5027911;28;20226;-64
2021/04/23 01:47:23;;;;;;;8.53;5.37;;;;;;;5.42;67.17;101791.19;5025761;28;20233;-62
2021/04/23 01:49:49;;;;;;;10.43;5.40;;;;;;;5.43;67.48;101801.72;5032251;28;20233;-64
2021/04/23 01:52:16;;;;;;;9.20;4.33;;;;;;;5.44;67.18;101806.09;5029079;28;20677;-63
2021/04/23 01:54:42;;;;;;;11.60;5.03;;;;;;;5.44;67.05;101803.47;5028990;28;20202;-64
2021/04/23 01:57:10;;;;;;;12.93;4.83;;;;;;;5.46;67.19;101803.44;5027853;28;20608;-64
2021/04/23 01:59:38;;;;;;;13.17;5.03;;;;;;;5.46;67.25;101806.94;5027610;28;20226;-65
2021/04/23 02:02:05;;;;;;;16.37;5.30;;;;;;;5.47;66.92;101802.53;5028594;28;20201;-64
2021/04/23 02:04:32;;;;;;;8.90;4.97;;;;;;;5.48;67.01;101805.13;5028225;28;20631;-64
2021/04/23 02:06:58;;;;;;;10.50;4.43;;;;;;;5.49;66.79;101809.50;5028848;28;20199;-65
2021/04/23 02:09:25;;;;;;;11.07;5.17;;;;;;;5.50;66.71;101805.97;5029164;28;20226;-64
2021/04/23 02:11:53;;;;;;;9.53;5.03;;;;;;;5.51;66.96;101810.34;5029140;28;20202;-65
2021/04/23 02:14:21;;;;;;;13.90;5.60;;;;;;;5.52;66.76;101817.38;5025544;28;20207;-65
2021/04/23 02:16:47;;;;;;;10.83;5.83;;;;;;;5.54;66.66;101820.00;5028693;28;20202;-64
2021/04/23 02:19:14;;;;;;;12.43;5.60;;;;;;;5.54;67.09;101815.56;5029222;28;20225;-65
2021/04/23 02:21:41;;;;;;;9.83;5.83;;;;;;;5.55;66.81;101817.28;5026489;28;20202;-64
2021/04/23 02:24:08;;;;;;;10.10;5.47;;;;;;;5.56;66.55;101821.66;5027771;28;20284;-64
2021/04/23 02:26:35;;;;;;;12.43;5.73;;;;;;;5.58;66.80;101822.50;5027332;28;20249;-64
2021/04/23 02:29:02;;;;;;;12.43;5.70;;;;;;;5.59;66.93;101823.34;5027940;28;20226;-65
2021/04/23 02:31:30;;;;;;;13.90;5.80;;;;;;;5.60;66.90;101822.47;5027444;28;20206;-57
2021/04/23 02:34:00;;;;;;;7.97;4.90;;;;;;;5.61;66.89;101825.97;5028862;28;20660;-65
2021/04/23 02:36:26;;;;;;;13.97;6.10;;;;;;;5.62;66.73;101827.72;5030514;28;20213;-64
2021/04/23 02:38:53;;;;;;;8.70;5.17;;;;;;;5.61;66.79;101825.97;5032800;28;20586;-64
2021/04/23 02:41:21;;;;;;;11.43;5.47;;;;;;;5.60;67.10;101819.81;5030480;28;20259;-64
2021/04/23 02:43:50;;;;;;;10.47;4.80;;;;;;;5.61;66.98;101825.97;5032452;28;20233;-64
2021/04/23 02:46:16;;;;;;;14.17;4.90;;;;;;;5.61;67.20;101831.25;5034483;28;20256;-64
2021/04/23 02:48:45;;;;;;;9.97;5.83;;;;;;;5.61;67.38;101831.25;5031691;28;20212;-64
2021/04/23 02:51:14;;;;;;;12.10;5.43;;;;;;;5.61;67.12;101832.13;5032870;28;20252;-64
2021/04/23 02:53:40;;;;;;;11.20;5.33;;;;;;;5.60;67.15;101835.66;5030601;28;20242;-65
2021/04/23 02:56:08;;;;;;;13.00;5.20;;;;;;;5.61;66.72;101836.53;5031723;28;20202;-64
2021/04/23 02:58:35;;;;;;;11.23;5.30;;;;;;;5.61;66.90;101833.91;5031267;28;20285;-65
2021/04/23 03:01:05;;;;;;;10.07;5.67;;;;;;;5.60;67.00;101840.97;5030066;28;20214;-65
2021/04/23 03:03:32;;;;;;;11.83;5.27;;;;;;;5.61;66.71;101836.53;5030150;28;20234;-65
2021/04/23 03:05:59;;;;;;;11.93;5.60;;;;;;;5.61;67.06;101831.25;5030612;28;20236;-59
2021/04/23 03:08:26;;;;;;;12.30;5.40;;;;;;;5.61;66.98;101840.06;5033406;28;20202;-63
2021/04/23 03:10:56;;;;;;;14.13;5.53;;;;;;;5.62;67.15;101835.63;5030361;28;20211;-62
2021/04/23 03:13:24;;;;;;;9.93;5.47;;;;;;;5.62;66.76;101843.56;5028829;28;20205;-65
2021/04/23 03:15:51;;;;;;;16.10;5.40;;;;;;;5.62;66.77;101838.28;5031826;28;20210;-65
2021/04/23 03:18:20;;;;;;;10.93;4.80;;;;;;;5.62;67.23;101841.78;5031891;28;20210;-65
2021/04/23 03:20:47;;;;;;;10.23;4.90;;;;;;;5.64;67.29;101837.34;5032921;28;20222;-65
2021/04/23 03:23:14;;;;;;;11.80;5.20;;;;;;;5.65;67.08;101832.94;5030568;28;20230;-65
2021/04/23 03:25:41;;;;;;;9.50;4.80;;;;;;;5.64;66.94;101823.25;5031090;28;20198;-64
2021/04/23 03:28:07;;;;;;;8.47;4.83;;;;;;;5.66;66.98;101824.09;5029925;28;20206;-64
2021/04/23 03:30:35;;;;;;;12.33;5.50;;;;;;;5.66;66.97;101813.53;5032814;28;20222;-65
2021/04/23 03:33:02;;;;;;;10.17;4.63;;;;;;;5.66;67.09;101818.81;5030253;28;20207;-64
2021/04/23 03:35:29;;;;;;;10.37;5.20;;;;;;;5.65;66.94;101823.22;5040126;28;20202;-63
2021/04/23 03:37:57;;;;;;;6.20;4.17;;;;;;;5.64;67.26;101816.19;5037979;28;20249;-64
2021/04/23 03:40:27;;;;;;;9.27;4.50;;;;;;;5.64;66.78;101823.25;5036876;28;20230;-64
2021/04/23 03:42:53;;;;;;;11.13;4.80;;;;;;;5.65;66.99;101822.34;5038440;28;20563;-65
2021/04/23 03:45:21;;;;;;;8.07;4.43;;;;;;;5.65;66.46;101832.94;5035837;28;20214;-63
2021/04/23 03:47:48;;;;;;;11.50;4.40;;;;;;;5.65;66.89;101825.00;5033917;28;20213;-63
2021/04/23 03:50:17;;;;;;;9.40;4.63;;;;;;;5.64;66.67;101824.13;5034668;28;20230;-64
2021/04/23 03:52:44;;;;;;;8.33;3.80;;;;;;;5.64;66.60;101820.63;5035425;28;20218;-63
2021/04/23 03:55:14;;;;;;;9.20;4.10;;;;;;;5.65;66.53;101817.06;5033204;28;20232;-64
2021/04/23 03:57:41;;;;;;;8.20;4.17;;;;;;;5.64;66.59;101810.91;5030842;28;20281;-64
2021/04/23 04:00:11;;;;;;;11.40;4.53;;;;;;;5.65;66.50;101822.34;5032365;28;20221;-65
2021/04/23 04:02:38;;;;;;;10.73;4.00;;;;;;;5.64;66.40;101832.06;5030050;28;20668;-65
2021/04/23 04:05:05;;;;;;;10.47;4.70;;;;;;;5.65;66.61;101836.44;5032405;28;20224;-64
2021/04/23 04:07:31;;;;;;;9.10;4.33;;;;;;;5.65;66.69;101840.84;5030888;28;20287;-63
2021/04/23 04:09:57;;;;;;;10.53;4.47;;;;;;;5.67;66.32;101846.97;5030635;28;20230;-61
2021/04/23 04:12:24;;;;;;;8.37;4.33;;;;;;;5.69;66.47;101842.53;5030171;28;20217;-63
2021/04/23 04:14:51;;;;;;;10.57;4.63;;;;;;;5.68;66.89;101839.00;5030442;28;20202;-64
2021/04/23 04:17:17;;;;;;;9.30;4.27;;;;;;;5.69;66.61;101853.09;5032245;28;20205;-64
2021/04/23 04:19:43;;;;;;;9.80;3.77;;;;;;;5.70;66.71;101846.91;5033199;28;20237;-64
2021/04/23 04:22:09;;;;;;;5.23;3.77;;;;;;;5.70;66.43;101844.28;5041911;28;20198;-64
2021/04/23 04:24:35;;;;;;;10.87;4.43;;;;;;;5.70;66.59;101847.78;5041042;28;20234;-64
2021/04/23 04:27:02;;;;;;;7.93;3.73;;;;;;;5.71;66.48;101848.66;5042947;28;20236;-64
2021/04/23 04:29:28;;;;;;;8.07;3.97;;;;;;;5.72;66.24;101848.63;5033166;28;20753;-64
2021/04/23 04:31:55;;;;;;;9.10;4.17;;;;;;;5.72;65.98;101851.25;5031092;28;20202;-63
2021/04/23 04:34:21;;;;;;;10.23;4.23;;;;;;;5.72;66.64;101847.75;5027997;28;20200;-64
2021/04/23 04:36:47;;;;;;;11.27;4.40;;;;;;;5.74;66.41;101857.34;5029748;28;20210;-66
2021/04/23 04:39:13;;;;;;;10.60;5.23;;;;;;;5.74;66.49;101852.06;5032649;28;20221;-64
2021/04/23 04:41:39;;;;;;;9.00;4.40;;;;;;;5.75;66.32;101860.84;5028773;28;20202;-64
2021/04/23 04:44:06;;;;;;;9.60;4.77;;;;;;;5.75;66.06;101871.44;5035544;28;20237;-64
2021/04/23 04:46:33;;;;;;;10.10;4.03;;;;;;;5.76;66.12;101873.19;5030769;28;20216;-63
2021/04/23 04:49:00;;;;;;;11.60;4.60;;;;;;;5.76;66.41;101879.34;5041498;28;20218;-62
2021/04/23 04:51:27;;;;;;;9.63;3.97;;;;;;;5.76;65.93;101874.03;5029344;28;20222;-62
2021/04/23 04:53:53;;;;;;;7.87;3.77;;;;;;;5.77;65.90;101885.50;5031580;28;20716;-64
2021/04/23 04:56:19;;;;;;;7.30;3.83;;;;;;;5.78;66.06;101887.22;5031725;28;20202;-63
2021/04/23 04:58:45;;;;;;;8.17;4.03;;;;;;;5.78;66.42;101885.44;5032498;28;20313;-63
2021/04/23 05:01:14;;;;;;;9.33;4.27;;;;;;;5.79;66.01;101888.97;5028411;28;20203;-63
2021/04/23 05:03:40;;;;;;;9.70;4.10;;;;;;;5.80;66.28;101883.66;5028118;28;20792;-65
2021/04/23 05:06:08;;;;;;;10.17;3.97;;;;;;;5.80;65.85;101891.56;5031537;28;20206;-64
2021/04/23 05:08:34;;;;;;;9.70;3.70;;;;;;;5.81;66.34;101903.03;5029929;28;20612;-65
2021/04/23 05:11:00;;;;;;;9.53;4.90;;;;;;;5.82;66.13;101899.47;5029723;28;20217;-65
2021/04/23 05:13:26;;;;;;;9.80;4.40;;;;;;;5.84;66.02;101892.38;5024538;28;20256;-64
2021/04/23 05:15:52;;;;;;;9.20;4.23;;;;;;;5.85;66.15;101899.41;5029099;28;20207;-66
2021/04/23 05:18:18;;;;;;;9.20;4.37;;;;;;;5.85;65.89;101902.06;5030094;28;20226;-64
2021/04/23 05:20:46;;;;;;;8.83;4.20;;;;;;;5.89;65.98;101904.63;5027255;28;20226;-64
2021/04/23 05:23:13;;;;;;;7.33;3.87;;;;;;;5.90;65.95;101910.78;5027651;28;20221;-64
2021/04/23 05:25:39;;;;;;;9.57;3.77;;;;;;;5.91;65.68;101910.72;5026730;28;20202;-64
2021/04/23 05:28:06;;;;;;;10.60;4.03;;;;;;;5.95;65.83;101905.38;5027748;28;20206;-62
2021/04/23 05:30:34;;;;;;;9.67;3.97;;;;;;;5.96;66.31;101910.63;5025383;28;20781;-64
2021/04/23 05:33:02;;;;;;;10.23;4.00;;;;;;;5.98;65.74;101916.75;5027902;28;20209;-65
2021/04/23 05:35:29;;;;;;;9.87;3.80;;;;;;;6.00;65.42;101914.94;5024062;28;20213;-67
2021/04/23 05:37:56;;;;;;;9.77;4.17;;;;;;;6.03;65.83;101917.50;5029711;28;20210;-67
2021/04/23 05:40:25;;;;;;;8.80;4.03;;;;;;;6.06;65.85;101921.84;5026623;28;20224;-67
2021/04/23 05:42:51;;;;;;;8.70;3.87;;;;;;;6.10;65.82;101921.72;5025899;28;20202;-68
2021/04/23 05:45:18;;;;;;;14.40;3.77;;;;;;;6.13;65.74;101928.72;5028126;28;20615;-67
2021/04/23 05:47:44;;;;;;;6.90;3.33;;;;;;;6.16;65.60;101932.16;5028277;28;20664;-68
2021/04/23 05:50:13;;;;;;;8.70;3.80;;;;;;;6.19;65.36;101928.56;5025138;28;20227;-66
2021/04/23 05:52:40;;;;;;;8.20;3.93;;;;;;;6.20;65.18;101935.59;5026505;28;20210;-67
2021/04/23 05:55:08;;;;;;;9.17;3.50;;;;;;;6.23;65.35;101941.69;5026394;28;20202;-67
2021/04/23 05:57:34;;;;;;;8.30;4.40;;;;;;;6.28;65.30;101930.97;5029031;28;20205;-67
2021/04/23 06:00:01;;;;;;;9.57;3.93;;;;;;;6.32;65.19;101931.78;5029566;28;20222;-68
2021/04/23 06:02:29;;;;;;;8.50;4.30;;;;;;;6.34;64.67;101937.91;5031501;28;20205;-66
2021/04/23 06:04:55;;;;;;;10.33;4.07;;;;;;;6.38;64.72;101937.78;5033695;28;20233;-68
2021/04/23 06:07:21;;;;;;;8.50;4.03;;;;;;;6.40;64.68;101943.03;5031575;28;20232;-67
2021/04/23 06:09:47;;;;;;;10.10;4.20;;;;;;;6.41;64.43;101928.91;5027449;28;20229;-68
2021/04/23 06:12:13;;;;;;;8.80;5.07;;;;;;;6.44;64.48;101931.47;5038972;28;20210;-66
2021/04/23 06:14:40;;;;;;;15.77;8.87;;;;;;;6.46;64.37;101943.72;5037415;28;20206;-68
2021/04/23 06:17:06;;;;;;;11.80;6.00;;;;;;;6.46;64.25;101934.94;5033723;28;20217;-67
2021/04/23 06:19:32;;;;;;;8.67;4.27;;;;;;;6.51;64.16;101938.34;5034321;28;20229;-67
2021/04/23 06:21:59;;;;;;;8.90;4.03;;;;;;;6.52;63.97;101935.66;5031929;28;20199;-67
2021/04/23 06:24:25;;;;;;;8.73;4.53;;;;;;;6.55;63.90;101934.69;5035990;28;20645;-65
2021/04/23 06:26:52;;;;;;;7.43;4.20;;;;;;;6.58;63.85;101937.28;5030989;28;20218;-65
2021/04/23 06:29:18;;;;;;;11.03;4.53;;;;;;;6.61;64.03;101955.72;5034726;28;20234;-68
2021/04/23 06:31:44;;;;;;;10.90;4.27;;;;;;;6.66;63.85;101951.16;5033338;28;20233;-69
2021/04/23 06:34:11;;;;;;;10.07;4.07;;;;;;;6.71;63.72;101959.84;5031814;28;20198;-67
2021/04/23 06:36:37;;;;;;;8.57;4.30;;;;;;;6.75;63.38;101958.88;5033035;28;20206;-67
2021/04/23 06:39:05;;;;;;;9.80;4.30;;;;;;;6.79;63.50;101960.53;5033080;28;20237;-68
2021/04/23 06:41:31;;;;;;;8.47;4.50;;;;;;;6.84;63.06;101957.75;5034910;28;20214;-66
2021/04/23 06:43:57;;;;;;;9.13;5.27;;;;;;;6.86;63.02;101964.75;5031354;28;20235;-67
2021/04/23 06:46:23;;;;;;;11.20;4.53;;;;;;;6.91;63.05;101962.84;5028460;28;20215;-66
2021/04/23 06:48:50;;;;;;;10.83;4.93;;;;;;;6.94;62.93;101961.91;5042092;28;20225;-68
2021/04/23 06:51:16;;;;;;;7.97;4.53;;;;;;;7.01;63.03;101958.16;5068233;22;20239;-68
2021/04/23 06:53:42;;;;;;;10.20;4.73;;;;;;;7.06;62.95;101968.63;5070064;28;20205;-69
2021/04/23 06:56:08;;;;;;;10.60;4.70;;;;;;;7.08;63.06;101962.38;5065449;28;20212;-69
2021/04/23 06:58:34;;;;;;;10.83;4.90;;;;;;;7.13;62.62;101973.72;5068220;28;20205;-69
2021/04/23 07:01:00;;;;;;;9.90;5.17;;;;;;;7.19;62.32;101964.72;5073627;28;20224;-69
2021/04/23 07:03:26;;;;;;;8.03;4.60;;;;;;;7.26;62.39;101979.53;5089072;28;21066;-69
2021/04/23 07:05:55;;;;;;;11.13;4.40;;;;;;;7.34;62.07;101968.72;5091756;28;20295;-69
2021/04/23 07:08:21;;;;;;;7.87;4.47;;;;;;;7.42;62.18;101972.88;5082991;28;20848;-69
2021/04/23 07:10:47;;;;;;;7.23;4.27;;;;;;;7.48;61.62;101974.50;5087477;28;20208;-68
2021/04/23 07:13:13;;;;;;;9.63;3.90;;;;;;;7.56;60.99;101977.75;5088830;28;20696;-66
2021/04/23 07:15:40;;;;;;;10.67;4.80;;;;;;;7.59;61.37;101981.19;5092316;28;20563;-69
2021/04/23 07:18:06;;;;;;;9.23;4.47;;;;;;;7.64;60.51;101979.28;5087803;28;20279;-69
2021/04/23 07:20:32;;;;;;;8.60;4.43;;;;;;;7.70;60.52;101978.25;5082969;28;20222;-69
2021/04/23 07:22:59;;;;;;;10.37;4.80;;;;;;;7.74;60.79;101990.47;5082936;28;20609;-69
2021/04/23 07:25:25;;;;;;;10.87;4.80;;;;;;;7.76;60.36;101983.34;5097335;28;20231;-69
2021/04/23 07:27:52;;;;;;;11.60;5.50;;;;;;;7.81;60.46;101986.72;5085044;28;20726;-69
2021/04/23 07:30:20;;;;;;;11.47;4.80;;;;;;;7.89;60.00;101987.34;5087899;28;20201;-69
2021/04/23 07:32:46;;;;;;;6.90;4.20;;;;;;;7.94;59.75;101988.06;5081689;28;20228;-69
2021/04/23 07:35:14;;;;;;;10.07;4.60;;;;;;;7.98;59.04;101988.84;5085455;28;20204;-69
2021/04/23 07:37:40;;;;;;;12.03;4.50;;;;;;;8.01;59.27;101984.34;5090027;28;20212;-69
2021/04/23 07:40:10;;;;;;;10.30;5.27;;;;;;;8.01;59.19;101989.63;5078031;28;20211;-69
2021/04/23 07:42:36;;;;;;;16.87;4.30;;;;;;;8.04;58.22;101990.47;5090521;28;21480;-68
2021/04/23 07:45:03;;;;;;;8.30;3.50;;;;;;;8.11;59.20;101989.31;5092763;28;20246;-69
2021/04/23 07:47:29;;;;;;;8.63;4.13;;;;;;;8.20;58.09;101989.91;5090560;28;20299;-68
2021/04/23 07:49:55;;;;;;;9.67;5.20;;;;;;;8.29;58.78;101992.25;5085432;28;20197;-69
2021/04/23 07:52:21;;;;;;;11.10;4.50;;;;;;;8.39;57.82;101994.66;5079613;28;20283;-71
2021/04/23 07:54:47;;;;;;;10.07;4.90;;;;;;;8.43;57.85;101996.28;5092326;28;20205;-69
2021/04/23 07:57:14;;;;;;;9.10;4.30;;;;;;;8.46;57.64;102001.50;5089099;28;20566;-70
2021/04/23 07:59:41;;;;;;;5.37;3.43;;;;;;;8.46;57.37;101996.19;5085794;28;20201;-69
2021/04/23 08:02:08;;;;;;;13.50;4.80;;;;;;;8.45;56.44;101989.13;5082914;28;20227;-69
2021/04/23 08:04:38;;;;;;;12.57;4.10;;;;;;;8.46;56.28;101993.53;5085080;28;20594;-69
2021/04/23 08:07:05;;;;;;;7.03;3.77;;;;;;;8.56;56.12;101989.66;5081703;28;20267;-68
2021/04/23 08:09:31;;;;;;;9.73;4.30;;;;;;;8.63;56.08;101994.69;5085918;28;20204;-69
2021/04/23 08:11:57;;;;;;;9.40;4.47;;;;;;;8.72;55.89;101982.91;5081046;28;20705;-69
2021/04/23 08:14:24;;;;;;;10.00;4.63;;;;;;;8.81;56.10;101976.38;5084372;28;20205;-68
2021/04/23 08:16:50;;;;;;;11.73;4.50;;;;;;;8.88;55.54;101978.78;5082297;28;20208;-69
2021/04/23 08:19:16;;;;;;;8.83;4.10;;;;;;;8.94;55.46;101988.34;5083799;28;20200;-69
2021/04/23 08:21:42;;;;;;;8.90;4.53;;;;;;;9.03;54.90;101982.69;5078667;28;20303;-69
2021/04/23 08:24:10;;;;;;;8.53;4.20;;;;;;;9.16;54.81;101983.97;5083548;28;20216;-70
2021/04/23 08:26:36;;;;;;;9.93;4.77;;;;;;;9.32;54.75;101979.84;5082114;28;20204;-70
2021/04/23 08:29:02;;;;;;;8.77;4.40;;;;;;;9.47;54.51;101982.88;5083360;28;20696;-70
2021/04/23 08:31:29;;;;;;;8.20;3.73;;;;;;;9.57;53.77;101987.78;5080125;28;20231;-69
2021/04/23 08:33:55;;;;;;;6.13;4.07;;;;;;;9.61;52.62;101988.53;5086868;28;20205;-69
2021/04/23 08:36:21;;;;;;;6.40;3.73;;;;;;;9.66;52.50;101992.75;5088157;28;20578;-70
2021/04/23 08:38:47;;;;;;;9.17;4.10;;;;;;;9.77;52.25;101994.13;5086704;28;20680;-68
2021/04/23 08:41:13;;;;;;;8.40;3.47;;;;;;;9.86;52.02;101996.41;5082029;28;20224;-69
2021/04/23 08:43:39;;;;;;;6.53;3.83;;;;;;;9.93;51.00;101996.13;5080123;28;20228;-70
2021/04/23 08:46:05;;;;;;;8.30;3.93;;;;;;;10.00;50.42;102002.97;5083387;28;20219;-70
2021/04/23 08:48:34;;;;;;;8.00;3.80;;;;;;;10.05;50.53;102000.09;5083985;28;20205;-69
2021/04/23 08:51:00;;;;;;;10.67;4.27;;;;;;;10.13;50.24;101995.34;5081762;28;20297;-70
2021/04/23 08:53:27;;;;;;;9.90;3.47;;;;;;;10.20;50.37;101999.53;5084865;28;20216;-68
2021/04/23 08:55:53;;;;;;;11.60;4.60;;;;;;;10.22;49.91;101996.78;5077674;28;20200;-69
2021/04/23 08:58:19;;;;;;;6.17;4.03;;;;;;;10.25;50.61;102000.19;5084011;28;20196;-69
2021/04/23 09:00:47;;;;;;;5.87;3.50;;;;;;;10.27;49.95;102002.78;5080412;28;20745;-70
2021/04/23 09:03:16;;;;;;;6.80;3.77;;;;;;;10.26;49.85;102004.59;5076119;28;20196;-69
2021/04/23 09:05:43;;;;;;;7.70;4.13;;;;;;;10.25;48.85;102008.19;5075949;28;20201;-69
2021/04/23 09:08:11;;;;;;;10.37;4.03;;;;;;;10.23;48.59;101999.38;5075285;28;20201;-70
2021/04/23 09:10:38;;;;;;;9.63;4.67;;;;;;;10.27;49.30;101998.34;5077493;28;20203;-69
2021/04/23 09:13:07;;;;;;;10.50;4.83;;;;;;;10.38;50.00;101998.78;5081567;28;20585;-69
2021/04/23 09:15:33;;;;;;;9.23;3.80;;;;;;;10.49;49.39;102003.66;5079708;28;20221;-70
2021/04/23 09:18:08;;;;;;;8.97;4.03;;;;;;;10.58;49.29;102000.59;5079478;28;20214;-68
2021/04/23 09:20:35;;;;;;;6.27;3.80;;;;;;;10.65;48.61;102004.75;5084920;28;20208;-71
2021/04/23 09:23:12;;;;;;;11.17;3.83;;;;;;;10.70;48.54;102008.09;5074597;28;20226;-69
2021/04/23 09:25:40;;;;;;;7.90;3.90;;;;;;;10.77;48.43;102006.00;5085323;28;20596;-69
2021/04/23 09:28:06;;;;;;;11.20;4.20;;;;;;;10.84;48.51;102010.16;5077974;28;20204;-68
2021/04/23 09:30:33;;;;;;;12.83;5.33;;;;;;;10.89;48.17;102007.31;5079168;28;20321;-68
2021/04/23 09:33:01;;;;;;;7.17;3.67;;;;;;;10.91;47.61;102005.44;5075863;28;20221;-69
2021/04/23 09:35:28;;;;;;;8.40;4.00;;;;;;;10.93;47.68;101993.75;5073484;28;20288;-69
2021/04/23 09:37:59;;;;;;;7.60;4.33;;;;;;;11.08;48.51;101992.25;5070427;28;20254;-69
2021/04/23 09:40:33;;;;;;;7.03;3.17;;;;;;;11.26;47.40;101998.56;5069820;28;20296;-71
2021/04/23 09:43:00;;;;;;;8.43;3.93;;;;;;;11.38;47.20;101998.00;5077368;28;20724;-71
2021/04/23 09:45:28;;;;;;;8.47;3.73;;;;;;;11.46;46.64;101995.88;5073415;28;20252;-68
2021/04/23 09:47:55;;;;;;;9.23;3.87;;;;;;;11.51;45.77;102004.50;5071060;28;20204;-69
2021/04/23 09:50:27;;;;;;;12.23;3.83;;;;;;;11.51;45.92;101995.63;5076313;28;20208;-68
2021/04/23 09:52:55;;;;;;;9.60;3.97;;;;;;;11.51;45.75;102000.97;5075960;28;20293;-69
2021/04/23 09:55:23;;;;;;;6.60;3.77;;;;;;;11.53;45.55;101999.97;5071675;28;20196;-68
2021/04/23 09:57:52;;;;;;;17.47;3.70;;;;;;;11.60;45.55;101998.75;5072719;28;20200;-71
2021/04/23 10:00:21;;;;;;;8.47;3.57;;;;;;;11.70;45.75;102001.84;5073062;28;20235;-72
2021/04/23 10:02:51;;;;;;;7.37;3.87;;;;;;;11.85;45.72;102008.31;5074258;28;20222;-68
2021/04/23 10:05:33;;;;;;;12.43;4.40;;;;;;;11.94;45.58;102007.88;5070996;28;20228;-67
2021/04/23 10:08:01;;;;;;;8.57;4.10;;;;;;;11.93;45.21;102008.81;5070244;28;20204;-69
2021/04/23 10:10:27;;;;;;;8.53;3.70;;;;;;;11.90;45.08;102016.97;5078190;28;20203;-69
2021/04/23 10:12:57;;;;;;;6.27;4.10;;;;;;;11.88;44.43;102010.84;5074146;28;20226;-69
2021/04/23 10:15:26;;;;;;;6.17;3.77;;;;;;;11.92;44.79;101999.94;5073584;28;20197;-69
2021/04/23 10:17:54;;;;;;;6.77;3.90;;;;;;;11.99;44.82;102014.75;5072855;28;20649;-69
2021/04/23 10:20:24;;;;;;;8.63;4.50;;;;;;;12.12;44.51;102009.69;5070332;28;20682;-69
2021/04/23 10:22:51;;;;;;;9.20;4.03;;;;;;;12.19;44.04;102019.09;5070604;28;20239;-70
2021/04/23 10:25:18;;;;;;;6.07;4.13;;;;;;;12.22;43.88;102018.97;5072886;28;20251;-69
2021/04/23 10:27:46;;;;;;;8.87;4.17;;;;;;;12.19;43.68;102016.44;5074096;28;20213;-69
2021/04/23 10:30:16;;;;;;;8.67;3.27;;;;;;;12.14;43.14;102014.00;5078775;28;20667;-69
2021/04/23 10:32:46;;;;;;;6.77;3.90;;;;;;;12.14;43.53;102007.81;5081700;28;20224;-69
2021/04/23 10:35:12;;;;;;;7.47;4.00;;;;;;;12.21;43.98;102003.88;5077344;28;20658;-68
2021/04/23 10:37:38;;;;;;;7.43;4.00;;;;;;;12.29;43.89;102000.84;5079128;28;20201;-68
2021/04/23 10:40:07;;;;;;;8.90;3.67;;;;;;;12.35;43.39;102006.75;5080492;28;20658;-69
2021/04/23 10:42:48;;;;;;;8.53;4.00;;;;;;;12.48;43.74;102015.03;5080396;28;20222;-63
2021/04/23 10:45:35;;;;;;;7.10;3.63;;;;;;;12.58;42.91;102004.72;5084311;28;20286;-66
2021/04/23 10:48:23;;;;;;;7.00;3.63;;;;;;;12.62;43.04;102003.66;5079428;28;20208;-67
2021/04/23 10:50:50;;;;;;;6.47;3.47;;;;;;;12.66;42.48;101994.53;5082404;28;20200;-66
2021/04/23 10:53:18;;;;;;;6.60;3.60;;;;;;;12.64;42.27;102009.78;5089526;28;20574;-66
2021/04/23 10:55:48;;;;;;;11.43;4.03;;;;;;;12.65;42.24;102003.50;5086519;28;20206;-66
2021/04/23 10:58:16;;;;;;;6.47;3.60;;;;;;;12.66;42.28;101999.88;5085997;28;20679;-65
2021/04/23 11:00:47;;;;;;;8.27;3.73;;;;;;;12.71;42.54;102003.19;5091665;28;20935;-66
2021/04/23 11:03:22;;;;;;;10.27;4.90;;;;;;;12.77;42.50;102002.88;5085893;28;20284;-65
2021/04/23 11:05:50;;;;;;;10.13;4.13;;;;;;;12.83;42.83;101995.41;5084079;28;20238;-67
2021/04/23 11:08:16;;;;;;;9.93;4.00;;;;;;;12.88;42.20;101989.84;5089715;28;20253;-66
2021/04/23 11:11:12;;;;;;;7.23;3.83;;;;;;;12.93;42.04;101997.59;5087390;28;20224;-65
2021/04/23 11:13:39;;;;;;;7.77;4.00;;;;;;;12.97;42.26;101997.34;5086057;28;20206;-66
2021/04/23 11:16:27;;;;;;;8.13;4.70;;;;;;;13.00;42.23;101994.53;5086147;28;20230;-65
2021/04/23 11:18:54;;;;;;;9.00;4.37;;;;;;;13.01;41.79;101993.59;5066741;28;20745;-66
2021/04/23 11:21:38;;;;;;;8.03;4.13;;;;;;;12.99;41.37;101992.81;5084332;28;20231;-65
2021/04/23 11:24:12;;;;;;;10.03;3.90;;;;;;;12.98;41.36;101993.75;5088108;28;20602;-62
2021/04/23 11:27:06;;;;;;;9.03;4.27;;;;;;;13.01;41.53;101990.91;5088578;28;20204;-67
2021/04/23 11:29:34;;;;;;;5.90;3.60;;;;;;;13.08;41.12;101996.78;5086836;28;20262;-66